Pagrindinis puslapis
METAR-TAF:

METAR-TAF

Oro uostai :

Oro pajėgų bazė

Chamis Mušaitas, Saudo Arabija

platuma: 18-18N, ilguma: 042-48E, Aukštis: 2066 m

Dabartinis oras

Ataskaita buvo paskelbta 24 minutes, ne 10:00 UTC
Vėjas 14 kt iš Rytų/Šiaurės Rytų
Temperatūra 29°C
Drėgmė 14%
Slėgis 1022 hPa
Matomumas 10 km arba daugiau
nėra debesų žemiau 1500 m ir nėra kamuolinių lietaus debesų

METAR: OEKM 211000Z 06014KT CAVOK 29/M01 Q1022 NOSIG

Laikas: 13:24 (10:24 UTC)

Prognozė

Ataskaita buvo paskelbta 5 valandos ir 24 minutes, ne 05:00 UTC
Prognozė galioja nuo 21 metu 06 UTC su 21 metu 15 UTC
Vėjas 16 kt iš Rytų
Matomumas: 7000 m
Mažai debesys ne aukštis 2000 ft
Laikinai
nuo 21 metu 10 UTC su 21 metu 15 UTC
Matomumas: 4000 m
Dulkes pustymas
Laikinai
nuo 21 metu 12 UTC su 21 metu 16 UTC
Mažai debesys ne aukštis 2500 ft, Liūtiniai kamuoliniai debesys.

TAF: OEKM 210500Z 2106/2115 08016KT 7000 FEW020 TEMPO 2110/2115 4000 BLDU TEMPO 2112/2116 FEW025CB

Orai ataskaitas ir orų prognozės (METAR, TAF).

turimą stotys yra geltonos ir raudonos taškus žemėlapyje.

Perkelti pele per norėdami pamatyti stoties vardą.

Tada spustelėkite, norėdami matyti oro stebėjimo ir prognozės.

Norėdami pakeisti žemėlapį: spustelėkite ant žalios mygtukų su juodo kryžiaus žemyn,; žalią mygtuką su brūkšneliu, jei norite nutolinti; arba žalių rodyklių gretimoms žemėlapius.


METAR-TAF: